Time;durP1;ratioP1;P1;durP2;ratioP2;P2;SDS_P1;SDS_P2;PMS_P1;PMS_P2;Temp;Humidity;BMP_temperature;BMP_pressure;BME280_temperature;BME280_humidity;BME280_pressure;Samples;Min_cycle;Max_cycle;Signal;HPM_P1;HPM_P2
2021/04/24 00:01:42;;;;;;;;;;;;;;;-144.99;86.90;52297.25;5014372;28;19978;-78
2021/04/24 00:04:14;;;;;;;;;;;;;;;-144.99;87.20;52264.66;5015312;28;19989;-78
2021/04/24 00:06:46;;;;;;;;;;;;;;;-144.99;86.97;52264.66;5012391;28;20036;-78
2021/04/24 00:09:17;;;;;;;;;;;;;;;-144.99;86.86;52301.34;5014655;28;19989;-79
2021/04/24 00:11:49;;;;;;;;;;;;;;;-144.99;86.90;52264.66;5015643;28;20105;-78
2021/04/24 00:14:23;;;;;;;;;;;;;;;-144.99;87.02;52289.13;5015464;28;20464;-78
2021/04/24 00:16:55;;;;;;;;;;;;;;;-144.99;87.02;52291.16;5014944;28;19981;-79
2021/04/24 00:19:27;;;;;;;;;;;;;;;-144.99;86.97;52236.13;5015320;28;19978;-78
2021/04/24 00:21:58;;;;;;;;;;;;;;;-144.99;86.97;52289.13;5004523;28;19978;-79
2021/04/24 00:24:24;;;;;;;;;;;;;;;-144.99;86.77;52293.19;5010338;28;19997;-78
2021/04/24 00:26:55;;;;;;;;;;;;;;;-144.99;86.86;52276.88;5008372;28;20154;-78
2021/04/24 00:29:29;;;;;;;;;;;;;;;-144.99;86.92;52301.34;5009832;28;19989;-79
2021/04/24 00:31:57;;;;;;;;;;;;;;;-144.99;86.85;52285.03;5014600;28;19980;-79
2021/04/24 00:34:30;;;;;;;;;;;;;;;-144.99;86.76;52285.03;5016033;28;19982;-79
2021/04/24 00:37:02;;;;;;;;;;;;;;;-144.99;87.06;52276.88;5014120;28;19974;-80
2021/04/24 00:39:33;;;;;;;;;;;;;;;-144.99;87.07;52250.38;5016163;28;19974;-79
2021/04/24 00:42:04;;;;;;;;;;;;;;;-144.99;87.45;52236.13;5014982;28;19974;-79
2021/04/24 00:44:36;;;;;;;;;;;;;;;-144.99;87.31;52301.34;5013131;28;19994;-78
2021/04/24 00:47:07;;;;;;;;;;;;;;;-144.99;87.54;52285.03;5014741;28;19978;-79
2021/04/24 00:49:40;;;;;;;;;;;;;;;-144.99;87.72;52240.19;5007450;28;20490;-78
2021/04/24 00:52:11;;;;;;;;;;;;;;;-144.99;87.86;52211.66;5014894;28;20017;-77
2021/04/24 00:54:47;;;;;;;;;;;;;;;-144.99;88.16;52297.25;5027717;23;19993;-69
2021/04/24 00:57:19;;;;;;;;;;;;;;;-144.99;88.41;52223.88;5010431;28;20361;-70
2021/04/24 00:59:51;;;;;;;;;;;;;;;-144.99;88.44;52287.06;5011373;28;19986;-70
2021/04/24 01:02:22;;;;;;;;;;;;;;;-144.99;88.64;52240.19;5011203;28;20402;-70
2021/04/24 01:04:55;;;;;;;;;;;;;;;-144.99;88.81;52236.13;4996805;28;19998;-70
2021/04/24 01:07:26;;;;;;;;;;;;;;;-144.99;89.07;52240.19;5002796;28;20205;-70
2021/04/24 01:09:57;;;;;;;;;;;;;;;-144.99;89.23;52272.81;4991658;28;20432;-70
2021/04/24 01:12:26;;;;;;;;;;;;;;;-144.99;89.68;52280.97;5001050;28;20399;-70
2021/04/24 01:14:58;;;;;;;;;;;;;;;-144.99;90.00;52264.66;5002165;28;19997;-70
2021/04/24 01:17:34;;;;;;;;;;;;;;;-144.99;89.82;52276.88;4995023;28;20021;-70
2021/04/24 01:20:07;;;;;;;;;;;;;;;-144.99;90.14;52248.34;4999521;28;19974;-70
2021/04/24 01:22:40;;;;;;;;;;;;;;;-144.99;90.16;52252.44;4989838;28;19975;-69
2021/04/24 01:25:12;;;;;;;;;;;;;;;-144.99;90.19;52272.81;4993785;28;20161;-71
2021/04/24 01:27:50;;;;;;;;;;;;;;;-144.99;90.37;52240.19;4996006;28;20028;-68
2021/04/24 01:30:20;;;;;;;;;;;;;;;-144.99;90.51;52268.72;4995459;28;19982;-69
2021/04/24 01:32:51;;;;;;;;;;;;;;;-144.99;90.98;52278.91;5001191;28;20056;-70
2021/04/24 01:35:25;;;;;;;;;;;;;;;-144.99;91.16;52256.50;4999981;28;19978;-69
2021/04/24 01:37:58;;;;;;;;;;;;;;;-144.99;91.24;52266.69;4992384;28;19974;-70
2021/04/24 01:40:30;;;;;;;;;;;;;;;-144.99;91.34;52256.50;4990455;28;19989;-70
2021/04/24 01:43:07;;;;;;;;;;;;;;;-144.99;91.54;52248.34;4996284;28;19998;-69
2021/04/24 01:45:36;;;;;;;;;;;;;;;-144.99;91.83;52260.56;5004745;28;19996;-69
2021/04/24 01:48:08;;;;;;;;;;;;;;;-144.99;91.87;52278.91;4995538;28;20028;-69
2021/04/24 01:50:41;;;;;;;;;;;;;;;-144.99;92.12;52215.75;4994329;28;19974;-68
2021/04/24 01:53:15;;;;;;;;;;;;;;;-144.99;92.00;52280.97;4991658;28;20013;-68
2021/04/24 01:55:47;;;;;;;;;;;;;;;-144.99;91.96;52240.19;4993247;28;19977;-68
2021/04/24 01:58:17;;;;;;;;;;;;;;;-144.99;92.43;52252.44;4999050;28;19978;-68
2021/04/24 02:00:50;;;;;;;;;;;;;;;-144.99;92.83;52236.13;4993221;28;19955;-69
2021/04/24 02:03:19;;;;;;;;;;;;;;;-144.99;93.06;52246.31;5002380;28;20081;-69
2021/04/24 02:05:51;;;;;;;;;;;;;;;-144.99;93.71;52248.34;4990743;28;20044;-68
2021/04/24 02:08:25;;;;;;;;;;;;;;;-144.99;93.80;52256.50;4998697;28;20040;-68
2021/04/24 02:10:57;;;;;;;;;;;;;;;-144.99;94.01;52272.81;5000465;28;19980;-69
2021/04/24 02:13:30;;;;;;;;;;;;;;;-144.99;94.39;52268.72;4997773;28;19994;-70
2021/04/24 02:16:02;;;;;;;;;;;;;;;-144.99;94.69;52236.13;4999534;28;20170;-69
2021/04/24 02:18:33;;;;;;;;;;;;;;;-144.99;95.32;52250.38;4994304;28;19974;-69
2021/04/24 02:21:06;;;;;;;;;;;;;;;-144.99;95.46;52297.25;4994371;28;19985;-70
2021/04/24 02:23:39;;;;;;;;;;;;;;;-144.99;95.37;52270.78;4994586;28;19989;-70
2021/04/24 02:26:08;;;;;;;;;;;;;;;-144.99;95.59;52278.91;4989858;28;20037;-69
2021/04/24 02:28:39;;;;;;;;;;;;;;;-144.99;95.88;52266.69;5001499;28;20017;-70
2021/04/24 02:31:13;;;;;;;;;;;;;;;-144.99;95.75;52254.47;4996465;28;20411;-68
2021/04/24 02:33:41;;;;;;;;;;;;;;;-144.99;96.26;52256.50;4997433;28;20394;-69
2021/04/24 02:36:13;;;;;;;;;;;;;;;-144.99;96.27;52236.13;4997325;28;20040;-69
2021/04/24 02:38:51;;;;;;;;;;;;;;;-144.99;96.50;52297.25;4992770;28;20387;-69
2021/04/24 02:41:22;;;;;;;;;;;;;;;-144.99;96.52;52246.31;4995653;28;20531;-70
2021/04/24 02:43:54;;;;;;;;;;;;;;;-144.99;96.91;52293.19;4997660;28;19975;-68
2021/04/24 02:46:25;;;;;;;;;;;;;;;-144.99;97.36;52262.63;5003171;28;20345;-70
2021/04/24 02:48:57;;;;;;;;;;;;;;;-144.99;97.48;52223.88;4992509;28;20107;-69
2021/04/24 02:51:28;;;;;;;;;;;;;;;-144.99;97.62;52295.22;4999198;28;19986;-69
2021/04/24 02:54:00;;;;;;;;;;;;;;;-144.99;97.86;52240.19;4989820;28;19994;-68
2021/04/24 02:56:32;;;;;;;;;;;;;;;-144.99;97.91;52285.03;4992067;28;20507;-68
2021/04/24 02:59:00;;;;;;;;;;;;;;;-144.99;97.99;52223.88;4998969;28;19993;-68
2021/04/24 03:01:34;;;;;;;;;;;;;;;-144.99;97.85;52264.66;4996894;28;19993;-69
2021/04/24 03:04:06;;;;;;;;;;;;;;;-144.99;97.79;52266.69;4999318;28;20001;-69
2021/04/24 03:06:34;;;;;;;;;;;;;;;-144.99;98.04;52285.03;4999038;28;19990;-69
2021/04/24 03:09:07;;;;;;;;;;;;;;;-144.99;97.83;52244.28;4993438;28;20440;-69
2021/04/24 03:11:37;;;;;;;;;;;;;;;-144.99;97.85;52240.19;4991913;28;20439;-69
2021/04/24 03:14:06;;;;;;;;;;;;;;;-144.99;97.75;52244.28;4998559;28;19994;-70
2021/04/24 03:16:37;;;;;;;;;;;;;;;-144.99;97.78;52252.44;4988937;28;20349;-67
2021/04/24 03:19:07;;;;;;;;;;;;;;;-144.99;97.62;52240.19;4995277;28;20022;-68
2021/04/24 03:21:38;;;;;;;;;;;;;;;-144.99;97.59;52268.72;4982859;28;19978;-68
2021/04/24 03:24:08;;;;;;;;;;;;;;;-144.99;97.58;52236.13;4994394;28;19990;-68
2021/04/24 03:26:40;;;;;;;;;;;;;;;-144.99;97.43;52276.88;4994523;28;20367;-69
2021/04/24 03:29:11;;;;;;;;;;;;;;;-144.99;97.34;52272.81;4997079;28;20028;-69
2021/04/24 03:31:40;;;;;;;;;;;;;;;-144.99;97.39;52272.81;5006419;28;20044;-69
2021/04/24 03:34:11;;;;;;;;;;;;;;;-144.99;97.42;52254.47;4990497;28;19994;-69
2021/04/24 03:36:43;;;;;;;;;;;;;;;-144.99;97.31;52248.34;4999549;28;19974;-69
2021/04/24 03:39:15;;;;;;;;;;;;;;;-144.99;97.34;52248.34;4984816;28;19982;-69
2021/04/24 03:41:46;;;;;;;;;;;;;;;-144.99;97.34;52285.03;4998204;28;20332;-69
2021/04/24 03:44:18;;;;;;;;;;;;;;;-144.99;97.31;52244.28;5000726;28;19994;-69
2021/04/24 03:46:46;;;;;;;;;;;;;;;-144.99;97.33;52252.44;5002699;28;19997;-69
2021/04/24 03:49:18;;;;;;;;;;;;;;;-144.99;97.18;52305.41;4992215;28;20502;-69
2021/04/24 03:51:49;;;;;;;;;;;;;;;-144.99;97.18;52297.25;4995710;28;20352;-68
2021/04/24 03:54:19;;;;;;;;;;;;;;;-144.99;96.98;52264.66;4990620;28;20002;-68
2021/04/24 03:56:50;;;;;;;;;;;;;;;-144.99;96.80;52289.13;4991400;28;19979;-68
2021/04/24 03:59:22;;;;;;;;;;;;;;;-144.99;96.85;52248.34;5000216;28;19979;-69
2021/04/24 04:01:53;;;;;;;;;;;;;;;-144.99;96.68;52260.56;4995200;28;19989;-68
2021/04/24 04:04:25;;;;;;;;;;;;;;;-144.99;96.66;52297.25;4996983;28;20005;-67
2021/04/24 04:06:56;;;;;;;;;;;;;;;-144.99;96.48;52333.94;4999053;28;19986;-68
2021/04/24 04:09:28;;;;;;;;;;;;;;;-144.99;96.54;52236.13;4996587;28;19978;-69
2021/04/24 04:11:57;;;;;;;;;;;;;;;-144.99;96.35;52240.19;4999791;28;19975;-69
2021/04/24 04:14:28;;;;;;;;;;;;;;;-144.99;96.28;52252.44;5004118;28;19994;-69
2021/04/24 04:17:00;;;;;;;;;;;;;;;-144.99;96.28;52305.41;4995886;28;19974;-69
2021/04/24 04:19:31;;;;;;;;;;;;;;;-144.99;96.10;52291.16;5000603;28;19989;-70
2021/04/24 04:22:03;;;;;;;;;;;;;;;-144.99;95.91;52244.28;4988339;28;20480;-69
2021/04/24 04:24:35;;;;;;;;;;;;;;;-144.99;95.88;52299.31;4998826;28;19997;-68
2021/04/24 04:27:01;;;;;;;;;;;;;;;-144.99;95.48;52260.56;4999780;28;20005;-69
2021/04/24 04:29:39;;;;;;;;;;;;;;;-144.99;95.25;52280.97;4998594;28;19978;-68
2021/04/24 04:32:10;;;;;;;;;;;;;;;-144.99;95.15;52244.28;5002884;28;19978;-69
2021/04/24 04:34:42;;;;;;;;;;;;;;;-144.99;95.04;52256.50;5002119;28;19997;-69
2021/04/24 04:37:10;;;;;;;;;;;;;;;-144.99;94.96;52278.91;4998432;28;19982;-68
2021/04/24 04:39:43;;;;;;;;;;;;;;;-144.99;94.81;52280.97;4983415;28;20001;-69
2021/04/24 04:42:14;;;;;;;;;;;;;;;-144.99;94.63;52248.34;5000140;28;19985;-69
2021/04/24 04:44:45;;;;;;;;;;;;;;;-144.99;94.30;52230.00;5004529;28;20471;-69
2021/04/24 04:47:14;;;;;;;;;;;;;;;-144.99;94.15;52264.66;5001706;28;19978;-68
2021/04/24 04:49:45;;;;;;;;;;;;;;;-144.99;93.89;52248.34;4997908;28;19978;-68
2021/04/24 04:52:17;;;;;;;;;;;;;;;-144.99;93.56;52244.28;4993242;28;19978;-68
2021/04/24 04:54:49;;;;;;;;;;;;;;;-144.99;93.18;52285.03;4992489;28;20533;-70
2021/04/24 04:57:20;;;;;;;;;;;;;;;-144.99;92.74;52227.97;4995649;28;20025;-68
2021/04/24 04:59:52;;;;;;;;;;;;;;;-144.99;92.43;52280.97;5001244;28;19974;-69
2021/04/24 05:02:23;;;;;;;;;;;;;;;-144.99;92.18;52278.91;5006080;28;19978;-69
2021/04/24 05:04:52;;;;;;;;;;;;;;;-144.99;92.05;52252.44;4996683;28;20082;-71
2021/04/24 05:07:23;;;;;;;;;;;;;;;-144.99;91.58;52272.81;5002136;28;19978;-68
2021/04/24 05:09:54;;;;;;;;;;;;;;;-144.99;91.47;52215.75;4997469;28;20563;-69
2021/04/24 05:12:23;;;;;;;;;;;;;;;-144.99;91.01;52232.03;5001662;28;19986;-69
2021/04/24 05:14:54;;;;;;;;;;;;;;;-144.99;90.43;52238.16;5004888;28;20254;-69
2021/04/24 05:17:24;;;;;;;;;;;;;;;-144.99;90.41;52297.25;4996653;28;19982;-68
2021/04/24 05:19:56;;;;;;;;;;;;;;;-144.99;90.24;52240.19;4999364;28;19995;-68
2021/04/24 05:22:27;;;;;;;;;;;;;;;-144.99;89.85;52295.22;5001197;28;20024;-69
2021/04/24 05:25:00;;;;;;;;;;;;;;;-144.99;89.73;52219.81;4999996;28;20276;-70
2021/04/24 05:27:28;;;;;;;;;;;;;;;-144.99;89.61;52234.09;5004520;28;19978;-71
2021/04/24 05:30:00;;;;;;;;;;;;;;;-144.99;89.15;52234.09;4998915;28;19984;-69
2021/04/24 05:32:31;;;;;;;;;;;;;;;-144.99;88.93;52246.31;5005038;28;19990;-69
2021/04/24 05:34:59;;;;;;;;;;;;;;;-144.99;88.63;52276.88;5003437;28;19994;-68
2021/04/24 05:37:31;;;;;;;;;;;;;;;-144.99;88.10;52248.34;4996516;28;19974;-69
2021/04/24 05:40:03;;;;;;;;;;;;;;;-144.99;87.20;52234.09;4992204;28;20037;-70
2021/04/24 05:42:37;;;;;;;;;;;;;;;-144.99;86.97;52219.81;5004634;28;20001;-70
2021/04/24 05:45:11;;;;;;;;;;;;;;;-144.99;86.40;52248.34;5009205;28;20020;-67
2021/04/24 05:47:42;;;;;;;;;;;;;;;-144.99;86.04;52256.50;4999029;28;20471;-70
2021/04/24 05:50:15;;;;;;;;;;;;;;;-144.99;85.51;52248.34;5001894;28;19978;-68
2021/04/24 05:52:46;;;;;;;;;;;;;;;-144.99;85.42;52264.66;4996873;28;19984;-67
2021/04/24 05:55:19;;;;;;;;;;;;;;;-144.99;85.37;52219.81;4999579;28;19979;-73
2021/04/24 05:57:50;;;;;;;;;;;;;;;-144.99;85.28;52256.50;5002715;28;20184;-70
2021/04/24 06:00:22;;;;;;;;;;;;;;;-144.99;85.21;52232.03;4996154;28;20210;-68
2021/04/24 06:02:54;;;;;;;;;;;;;;;-144.99;84.49;52207.59;5003864;28;20372;-69
2021/04/24 06:05:22;;;;;;;;;;;;;;;-144.99;84.66;52203.50;4995734;28;19994;-69
2021/04/24 06:07:54;;;;;;;;;;;;;;;-144.99;84.15;52272.81;4999362;28;20034;-70
2021/04/24 06:10:26;;;;;;;;;;;;;;;-144.99;84.15;52248.34;5003513;28;19985;-69
2021/04/24 06:12:55;;;;;;;;;;;;;;;-144.99;84.06;52236.13;4996042;28;19975;-69
2021/04/24 06:15:26;;;;;;;;;;;;;;;-144.99;83.69;52256.50;5000612;28;19986;-70
2021/04/24 06:17:57;;;;;;;;;;;;;;;-144.99;83.50;52217.78;4994191;28;20036;-70
2021/04/24 06:20:29;;;;;;;;;;;;;;;-144.99;83.43;52223.88;4997508;28;20177;-69
2021/04/24 06:23:00;;;;;;;;;;;;;;;-144.99;82.83;52215.75;4990951;28;19975;-69
2021/04/24 06:25:30;;;;;;;;;;;;;;;-144.99;82.13;52223.88;4995866;28;19997;-72
2021/04/24 06:28:01;;;;;;;;;;;;;;;-144.99;81.42;52215.75;4999861;28;20029;-70
2021/04/24 06:30:33;;;;;;;;;;;;;;;-144.99;80.91;52254.47;5004004;28;19981;-71
2021/04/24 06:33:11;;;;;;;;;;;;;;;-144.99;80.36;52211.66;4997349;28;20036;-71
2021/04/24 06:35:39;;;;;;;;;;;;;;;-144.99;79.72;52219.81;4997279;28;20020;-70
2021/04/24 06:38:11;;;;;;;;;;;;;;;-144.99;79.09;52203.50;4999700;28;19974;-71
2021/04/24 06:40:43;;;;;;;;;;;;;;;-144.99;79.02;52250.38;4993481;28;20045;-70
2021/04/24 06:43:11;;;;;;;;;;;;;;;-144.99;78.63;52215.75;4992783;28;19994;-70
2021/04/24 06:45:43;;;;;;;;;;;;;;;-144.99;77.39;52201.47;5005380;28;19990;-70
2021/04/24 06:48:14;;;;;;;;;;;;;;;-144.99;77.11;52211.66;4996995;28;19982;-69
2021/04/24 06:50:46;;;;;;;;;;;;;;;-144.99;76.36;52193.31;4998593;28;19978;-70
2021/04/24 06:55:54;;;;;;;;;;;;;;;-144.99;75.34;52230.00;5003756;28;20366;-77
2021/04/24 06:58:26;;;;;;;;;;;;;;;-144.99;74.97;52211.66;5004591;28;19978;-80
2021/04/24 07:00:55;;;;;;;;;;;;;;;-144.99;74.46;52225.94;5006036;28;20652;-79
2021/04/24 07:03:27;;;;;;;;;;;;;;;-144.99;73.83;52191.28;5006568;28;19982;-78
2021/04/24 07:05:58;;;;;;;;;;;;;;;-144.99;72.15;52179.06;5007288;28;19960;-78
2021/04/24 07:08:29;;;;;;;;;;;;;;;-144.99;70.65;52191.28;5011429;28;20323;-79
2021/04/24 07:11:02;;;;;;;;;;;;;;;-144.99;69.71;52191.28;5009340;28;19974;-78
2021/04/24 07:13:33;;;;;;;;;;;;;;;-144.99;68.99;52195.34;5009184;28;20028;-78
2021/04/24 07:16:05;;;;;;;;;;;;;;;-144.99;68.61;52211.66;5011205;28;20440;-76
2021/04/24 07:18:37;;;;;;;;;;;;;;;-144.99;67.63;52215.75;5012004;28;20080;-77
2021/04/24 07:21:06;;;;;;;;;;;;;;;-144.99;67.09;52242.22;5011147;28;19973;-76
2021/04/24 07:23:38;;;;;;;;;;;;;;;-144.99;66.92;52191.28;4992453;28;19978;-76
2021/04/24 07:26:07;;;;;;;;;;;;;;;-144.99;66.31;52187.19;5007332;28;20032;-78
2021/04/24 07:28:36;;;;;;;;;;;;;;;-144.99;63.96;52191.28;5007729;28;19974;-78
2021/04/24 07:31:05;;;;;;;;;;;;;;;-144.99;64.20;52219.81;5011541;28;20001;-78
2021/04/24 07:33:36;;;;;;;;;;;;;;;-144.99;63.92;52148.47;5008966;28;20456;-79
2021/04/24 07:36:08;;;;;;;;;;;;;;;-144.99;63.16;52225.94;5012891;28;19982;-78
2021/04/24 07:38:34;;;;;;;;;;;;;;;-144.99;62.58;52174.97;5012849;28;19997;-78
2021/04/24 07:41:02;;;;;;;;;;;;;;;-144.99;62.33;52181.09;5014028;28;20471;-78
2021/04/24 07:43:35;;;;;;;;;;;;;;;-144.99;61.80;52201.47;5019678;28;19978;-78
2021/04/24 07:46:07;;;;;;;;;;;;;;;-144.99;60.71;52191.28;5013386;28;19993;-78
2021/04/24 07:48:35;;;;;;;;;;;;;;;-144.99;59.67;52162.75;5009578;28;19978;-78
2021/04/24 07:51:07;;;;;;;;;;;;;;;-144.99;59.48;52142.38;5016366;28;20068;-78
2021/04/24 07:53:39;;;;;;;;;;;;;;;-144.99;58.99;52146.44;5012065;28;19978;-77
2021/04/24 07:56:11;;;;;;;;;;;;;;;-144.99;58.77;52203.50;5007223;28;20052;-78
2021/04/24 07:58:43;;;;;;;;;;;;;;;-144.99;57.62;52187.19;4997184;28;19978;-78
2021/04/24 08:01:11;;;;;;;;;;;;;;;-144.99;56.53;52138.28;5010507;28;19982;-78
2021/04/24 08:03:43;;;;;;;;;;;;;;;-144.99;56.63;52195.34;5016849;28;19985;-78
2021/04/24 08:06:14;;;;;;;;;;;;;;;-144.99;56.73;52195.34;5016609;28;20000;-79
2021/04/24 08:08:46;;;;;;;;;;;;;;;-144.99;56.00;52179.06;5017111;28;20032;-78
2021/04/24 08:11:15;;;;;;;;;;;;;;;-144.99;55.13;52183.13;5015974;28;19977;-77
2021/04/24 08:13:47;;;;;;;;;;;;;;;-144.99;54.35;52174.97;5015727;28;20414;-79
2021/04/24 08:16:19;;;;;;;;;;;;;;;-144.99;53.62;52170.91;5015914;28;19981;-78
2021/04/24 08:18:50;;;;;;;;;;;;;;;-144.99;52.62;52179.06;5017916;28;19974;-78
2021/04/24 08:21:22;;;;;;;;;;;;;;;-144.99;51.67;52138.28;5014020;28;20040;-78
2021/04/24 08:23:58;;;;;;;;;;;;;;;-144.99;50.92;52146.44;5010915;28;19994;-78
2021/04/24 08:26:31;;;;;;;;;;;;;;;-144.99;51.19;52181.09;5008305;28;20000;-78
2021/04/24 08:29:06;;;;;;;;;;;;;;;-144.99;51.25;52164.78;5014800;28;19989;-78
2021/04/24 08:31:38;;;;;;;;;;;;;;;-144.99;49.84;52146.44;5004384;28;19978;-80
2021/04/24 08:34:09;;;;;;;;;;;;;;;-144.99;49.94;52154.59;5010909;28;20001;-79
2021/04/24 08:36:40;;;;;;;;;;;;;;;-144.99;49.05;52154.59;5005395;28;19978;-79
2021/04/24 08:39:12;;;;;;;;;;;;;;;-144.99;48.95;52154.59;5016941;28;19989;-79
2021/04/24 08:41:40;;;;;;;;;;;;;;;-144.99;49.17;52146.44;5017324;28;20002;-79
2021/04/24 08:44:15;;;;;;;;;;;;;;;-144.99;48.58;52179.06;5017197;28;19990;-79
2021/04/24 08:46:49;;;;;;;;;;;;;;;-144.99;47.88;52174.97;5015327;28;20008;-79
2021/04/24 08:49:22;;;;;;;;;;;;;;;-144.99;47.58;52158.66;5016584;28;19984;-79
2021/04/24 08:51:54;;;;;;;;;;;;;;;-144.99;47.74;52134.22;5017169;28;19989;-81
2021/04/24 08:54:20;;;;;;;;;;;;;;;-144.99;47.73;52126.06;5012862;28;20407;-79
2021/04/24 08:56:52;;;;;;;;;;;;;;;-144.99;46.10;52158.66;5016598;28;19980;-79
2021/04/24 08:59:24;;;;;;;;;;;;;;;-144.99;46.30;52150.53;5009369;28;19978;-80
2021/04/24 09:01:55;;;;;;;;;;;;;;;-144.99;45.03;52162.75;5017366;28;19989;-80
2021/04/24 09:04:24;;;;;;;;;;;;;;;-144.99;44.50;52126.06;5012291;28;19998;-80
2021/04/24 09:06:55;;;;;;;;;;;;;;;-144.99;44.31;52130.13;5013405;28;20499;-81
2021/04/24 09:09:29;;;;;;;;;;;;;;;-144.99;44.34;52138.28;5018312;28;19982;-79
2021/04/24 09:12:02;;;;;;;;;;;;;;;-144.99;44.10;52140.31;5016034;28;20638;-79
2021/04/24 09:14:34;;;;;;;;;;;;;;;-144.99;43.73;52121.97;5018438;28;20067;-79
2021/04/24 09:17:05;;;;;;;;;;;;;;;-144.99;43.55;52152.56;5019523;28;19982;-81
2021/04/24 09:19:38;;;;;;;;;;;;;;;-144.99;43.55;52113.84;5013179;28;20483;-80
2021/04/24 09:22:17;;;;;;;;;;;;;;;-144.99;43.08;52126.06;5017306;28;19925;-80
2021/04/24 09:24:47;;;;;;;;;;;;;;;-144.99;42.07;52126.06;5019924;28;20076;-81
2021/04/24 09:27:18;;;;;;;;;;;;;;;-144.99;42.00;52134.22;5020599;28;20005;-79
2021/04/24 09:29:48;;;;;;;;;;;;;;;-144.99;42.12;52142.38;5021247;28;19992;-80
2021/04/24 09:32:23;;;;;;;;;;;;;;;-144.99;41.72;52097.53;5018728;28;19982;-78
2021/04/24 09:34:55;;;;;;;;;;;;;;;-144.99;40.64;52134.22;5016768;28;19994;-79
2021/04/24 09:37:26;;;;;;;;;;;;;;;-144.99;39.92;52113.84;5001950;28;20356;-80
2021/04/24 09:39:58;;;;;;;;;;;;;;;-144.99;40.10;52089.38;5010137;28;19982;-81
2021/04/24 09:42:36;;;;;;;;;;;;;;;-144.99;40.62;52105.69;5017098;28;19982;-80
2021/04/24 09:45:26;;;;;;;;;;;;;;;-144.99;40.47;52085.31;5011025;28;20072;-80
2021/04/24 09:47:59;;;;;;;;;;;;;;;-144.99;40.16;52113.84;5016627;28;20061;-81
2021/04/24 09:50:34;;;;;;;;;;;;;;;-144.99;40.52;52174.97;5016869;28;19989;-80
2021/04/24 09:53:16;;;;;;;;;;;;;;;-144.99;40.63;52158.66;5022994;28;19982;-79
2021/04/24 09:55:48;;;;;;;;;;;;;;;-144.99;40.65;52142.38;5018152;28;20008;-80
2021/04/24 09:58:26;;;;;;;;;;;;;;;-144.99;40.69;52130.13;5015898;28;20092;-80
2021/04/24 10:00:57;;;;;;;;;;;;;;;-144.99;39.40;52195.34;5009644;28;19985;-80
2021/04/24 10:03:42;;;;;;;;;;;;;;;-144.99;39.61;52146.44;5017670;28;19982;-77
2021/04/24 10:06:29;;;;;;;;;;;;;;;-144.99;39.28;52136.25;5016100;28;19997;-79
2021/04/24 10:09:27;;;;;;;;;;;;;;;-144.99;39.42;52138.28;5008839;28;19978;-79
2021/04/24 10:12:14;;;;;;;;;;;;;;;-144.99;39.30;52113.84;5013962;28;19974;-80
2021/04/24 10:14:48;;;;;;;;;;;;;;;-144.99;39.25;52113.84;5016274;28;19998;-80
2021/04/24 10:17:22;;;;;;;;;;;;;;;-144.99;38.37;52121.97;5016271;28;19981;-80
2021/04/24 10:19:53;;;;;;;;;;;;;;;-144.99;37.54;52126.06;5014751;28;19985;-81
2021/04/24 10:22:25;;;;;;;;;;;;;;;-144.99;37.40;52174.97;5006774;28;20005;-81
2021/04/24 10:24:57;;;;;;;;;;;;;;;-144.99;36.79;52162.75;5016662;28;20379;-80
2021/04/24 10:27:28;;;;;;;;;;;;;;;-144.99;36.32;52181.09;5016696;28;20028;-81
2021/04/24 10:30:00;;;;;;;;;;;;;;;-144.99;36.85;52181.09;5011153;28;19978;-81
2021/04/24 10:32:32;;;;;;;;;;;;;;;-144.99;36.85;52140.31;5006606;28;19978;-81
2021/04/24 10:35:04;;;;;;;;;;;;;;;-144.99;36.44;52117.91;5014709;28;20427;-80
2021/04/24 10:37:32;;;;;;;;;;;;;;;-144.99;36.15;52038.44;5003466;28;20375;-81
2021/04/24 10:40:05;;;;;;;;;;;;;;;-144.99;34.96;52018.03;4998337;28;20395;-80
2021/04/24 10:42:37;;;;;;;;;;;;;;;-144.99;34.68;52138.28;5004611;28;19982;-80
2021/04/24 10:45:09;;;;;;;;;;;;;;;-144.99;34.67;52121.97;5004593;28;19994;-80
2021/04/24 10:47:56;;;;;;;;;;;;;;;-144.99;34.57;52113.84;5010538;28;20461;-79
2021/04/24 10:50:44;;;;;;;;;;;;;;;-144.99;34.78;52138.28;5015283;28;19984;-79
2021/04/24 10:53:26;;;;;;;;;;;;;;;-144.99;34.38;52036.38;5009929;28;19978;-81
2021/04/24 10:55:59;;;;;;;;;;;;;;;-144.99;34.33;52081.22;5015305;28;20040;-79
2021/04/24 10:58:32;;;;;;;;;;;;;;;-144.99;34.57;52097.53;5015020;28;20068;-78
2021/04/24 11:01:01;;;;;;;;;;;;;;;-144.99;34.48;52117.91;5010787;28;19977;-79
2021/04/24 11:03:46;;;;;;;;;;;;;;;-144.99;34.92;52138.28;5003574;28;20065;-79
2021/04/24 11:06:18;;;;;;;;;;;;;;;-144.99;34.45;51999.69;5009284;28;19996;-79
2021/04/24 11:08:52;;;;;;;;;;;;;;;-144.99;34.22;51950.78;5007598;28;19988;-81
2021/04/24 11:11:20;;;;;;;;;;;;;;;-144.99;32.63;51963.03;5013697;28;20017;-79
2021/04/24 11:13:54;;;;;;;;;;;;;;;-144.99;31.47;51910.03;5009013;28;19990;-79
2021/04/24 11:16:23;;;;;;;;;;;;;;;-144.99;31.03;51912.06;5006679;28;19978;-80
2021/04/24 11:18:55;;;;;;;;;;;;;;;-144.99;31.38;51897.81;5019315;28;19978;-80
2021/04/24 11:21:27;;;;;;;;;;;;;;;-144.99;30.37;51934.50;5011854;28;19979;-78
2021/04/24 11:24:00;;;;;;;;;;;;;;;-144.99;30.31;52077.16;5018946;28;19997;-81
2021/04/24 11:26:46;;;;;;;;;;;;;;;-144.99;30.23;52064.91;5020011;28;20344;-81
2021/04/24 11:29:18;;;;;;;;;;;;;;;-144.99;30.59;51912.06;5019388;28;20017;-81
2021/04/24 11:32:05;;;;;;;;;;;;;;;-144.99;30.95;52089.38;5014349;28;19982;-81
2021/04/24 11:34:54;;;;;;;;;;;;;;;-144.99;30.95;51954.88;5020234;28;19994;-81
2021/04/24 11:37:28;;;;;;;;;;;;;;;-144.99;30.88;51938.56;5004674;28;19978;-81
2021/04/24 11:40:22;;;;;;;;;;;;;;;-144.99;30.25;51967.09;5012398;28;20001;-80
2021/04/24 11:43:08;;;;;;;;;;;;;;;-144.99;29.00;51910.03;5006706;28;19984;-81
2021/04/24 11:45:59;;;;;;;;;;;;;;;-144.99;28.06;51912.06;5016820;28;20005;-80
2021/04/24 11:49:00;;;;;;;;;;;;;;;-144.99;28.41;51926.34;5019481;28;19977;-80
2021/04/24 11:51:47;;;;;;;;;;;;;;;-144.99;29.01;51926.34;5014196;28;19981;-79
2021/04/24 11:54:22;;;;;;;;;;;;;;;-144.99;28.53;51942.63;5004718;28;19998;-79
2021/04/24 11:56:56;;;;;;;;;;;;;;;-144.99;28.64;52083.25;5020250;28;19981;-80
2021/04/24 11:59:35;;;;;;;;;;;;;;;-144.99;28.32;51969.13;5019974;28;19981;-80
2021/04/24 12:02:16;;;;;;;;;;;;;;;-144.99;28.92;51946.72;5011148;28;20064;-79
2021/04/24 12:04:49;;;;;;;;;;;;;;;-144.99;29.14;51967.09;5012684;28;20002;-81
2021/04/24 12:07:22;;;;;;;;;;;;;;;-144.99;28.85;51967.09;5020074;28;19994;-79
2021/04/24 12:10:04;;;;;;;;;;;;;;;-144.99;29.30;51963.03;5019167;28;19981;-81
2021/04/24 12:12:31;;;;;;;;;;;;;;;-144.99;29.42;51954.88;5019095;28;20081;-81
2021/04/24 12:15:05;;;;;;;;;;;;;;;-144.99;28.95;52024.16;5019801;28;20008;-80
2021/04/24 12:17:50;;;;;;;;;;;;;;;-144.99;28.54;51963.03;5011792;28;19981;-81
2021/04/24 12:20:29;;;;;;;;;;;;;;;-144.99;28.76;51946.72;5004486;28;19981;-80
2021/04/24 12:22:56;;;;;;;;;;;;;;;-144.99;28.54;51967.09;5008287;28;19926;-80
2021/04/24 12:25:27;;;;;;;;;;;;;;;-144.99;29.06;51950.78;5013949;28;20453;-80
2021/04/24 12:27:54;;;;;;;;;;;;;;;-144.99;28.68;51942.63;5020458;28;20060;-80
2021/04/24 12:30:26;;;;;;;;;;;;;;;-144.99;28.39;51983.41;5021043;28;19992;-80
2021/04/24 12:32:58;;;;;;;;;;;;;;;-144.99;28.05;51963.03;5023105;28;20116;-80
2021/04/24 12:35:30;;;;;;;;;;;;;;;-144.99;27.71;51967.09;5019416;28;20198;-82
2021/04/24 12:38:06;;;;;;;;;;;;;;;-144.99;28.28;51983.41;5001194;28;20421;-78
2021/04/24 12:40:37;;;;;;;;;;;;;;;-144.99;28.48;52007.84;5009341;28;19982;-81
2021/04/24 12:43:06;;;;;;;;;;;;;;;-144.99;28.00;52016.00;5011773;28;20061;-81
2021/04/24 12:45:39;;;;;;;;;;;;;;;-144.99;28.70;52085.31;5017590;28;20340;-82
2021/04/24 12:48:15;;;;;;;;;;;;;;;-144.99;28.03;51981.38;5018835;28;20072;-81
2021/04/24 12:50:48;;;;;;;;;;;;;;;-144.99;28.04;52003.78;5014403;28;20489;-80
2021/04/24 12:53:27;;;;;;;;;;;;;;;-144.99;28.36;52028.22;5019154;28;20080;-81
2021/04/24 12:56:05;;;;;;;;;;;;;;;-144.99;27.43;52016.00;5007021;22;20019;-73
2021/04/24 12:58:38;;;;;;;;;;;;;;;-144.99;28.28;52020.09;4988443;28;19981;-74